Time;durP1;ratioP1;P1;durP2;ratioP2;P2;SDS_P1;SDS_P2;PMS_P1;PMS_P2;Temp;Humidity;BMP_temperature;BMP_pressure;BME280_temperature;BME280_humidity;BME280_pressure;Samples;Min_cycle;Max_cycle;Signal;HPM_P1;HPM_P2
2022/12/10 00:01:22;;;;;;;14.80;7.88;;;-1.90;99.90;;;;;;4886126;29;20494;-73
2022/12/10 00:03:48;;;;;;;14.35;7.47;;;-1.70;99.90;;;;;;4896248;29;20048;-74
2022/12/10 00:06:17;;;;;;;13.43;7.47;;;-1.90;99.90;;;;;;4910937;29;20047;-74
2022/12/10 00:08:43;;;;;;;18.10;9.23;;;-1.70;99.90;;;;;;4895118;29;20068;-74
2022/12/10 00:11:11;;;;;;;19.20;9.38;;;-1.70;99.90;;;;;;4896002;29;20184;-74
2022/12/10 00:13:37;;;;;;;16.40;8.57;;;-1.70;99.90;;;;;;4896107;29;20214;-74
2022/12/10 00:16:05;;;;;;;15.60;8.63;;;-1.70;99.90;;;;;;4895761;29;20048;-74
2022/12/10 00:18:31;;;;;;;14.20;7.95;;;-1.90;99.90;;;;;;4892878;29;20051;-74
2022/12/10 00:20:57;;;;;;;17.52;9.07;;;-1.80;99.90;;;;;;4913218;29;20048;-74
2022/12/10 00:23:23;;;;;;;17.95;9.73;;;-1.70;99.90;;;;;;4895161;29;20131;-74
2022/12/10 00:25:49;;;;;;;18.73;9.43;;;-1.90;99.90;;;;;;4895052;29;20063;-73
2022/12/10 00:28:14;;;;;;;18.95;10.23;;;-1.80;99.90;;;;;;4895495;29;20032;-74
2022/12/10 00:30:40;;;;;;;19.40;10.40;;;-1.80;99.90;;;;;;4895738;29;20228;-74
2022/12/10 00:33:06;;;;;;;18.13;9.88;;;-1.70;99.90;;;;;;4895406;29;20052;-74
2022/12/10 00:35:35;;;;;;;18.65;9.23;;;-1.90;99.90;;;;;;4895105;29;20051;-73
2022/12/10 00:38:01;;;;;;;15.20;8.57;;;-1.90;99.90;;;;;;4893560;29;20531;-69
2022/12/10 00:40:26;;;;;;;17.43;8.60;;;-1.80;99.90;;;;;;4894467;29;20127;-69
2022/12/10 00:42:52;;;;;;;20.52;10.77;;;-1.80;99.90;;;;;;4879033;29;20876;-69
2022/12/10 00:45:18;;;;;;;18.45;9.65;;;-2.00;99.90;;;;;;4894639;29;20094;-69
2022/12/10 00:47:43;;;;;;;16.83;9.35;;;-1.90;99.90;;;;;;4894238;29;20052;-69
2022/12/10 00:50:09;;;;;;;15.38;7.90;;;-2.00;99.90;;;;;;4894589;29;20072;-70
2022/12/10 00:52:35;;;;;;;14.68;7.63;;;-2.00;99.90;;;;;;4911679;29;20182;-70
2022/12/10 00:55:00;;;;;;;14.53;7.63;;;-2.00;99.90;;;;;;4894790;29;20422;-70
2022/12/10 00:57:26;;;;;;;18.70;8.97;;;-1.90;99.90;;;;;;4895070;29;20308;-69
2022/12/10 00:59:52;;;;;;;14.50;8.10;;;-1.80;99.90;;;;;;4893059;29;20371;-69
2022/12/10 01:02:17;;;;;;;16.52;7.80;;;-2.00;99.90;;;;;;4893626;29;20062;-69
2022/12/10 01:04:43;;;;;;;16.67;8.23;;;-1.90;99.90;;;;;;4893546;29;20044;-69
2022/12/10 01:07:10;;;;;;;15.27;8.05;;;-2.00;99.90;;;;;;4864419;29;20099;-70
2022/12/10 01:09:35;;;;;;;10.18;6.18;;;-2.00;99.90;;;;;;4892965;29;20052;-70
2022/12/10 01:12:03;;;;;;;10.45;5.82;;;-1.90;99.90;;;;;;4878903;29;20450;-70
2022/12/10 01:14:32;;;;;;;9.13;5.15;;;-2.10;99.90;;;;;;4910004;29;20044;-70
2022/12/10 01:17:03;;;;;;;10.68;5.93;;;-2.00;99.90;;;;;;4892096;29;20053;-70
2022/12/10 01:19:30;;;;;;;10.07;5.32;;;-2.00;99.90;;;;;;4894295;29;20454;-69
2022/12/10 01:21:57;;;;;;;9.00;4.70;;;-2.20;99.90;;;;;;4894433;29;20055;-73
2022/12/10 01:24:23;;;;;;;;;;;-2.00;99.90;;;;;;4879523;29;20036;-69
2022/12/10 01:26:49;;;;;;;10.10;5.32;;;-2.20;99.90;;;;;;4878602;29;19995;-69
2022/12/10 01:29:15;;;;;;;9.45;4.82;;;-2.10;99.90;;;;;;4893397;29;20131;-68
2022/12/10 01:31:42;;;;;;;7.47;4.40;;;-2.10;99.90;;;;;;4893966;29;20055;-70
2022/12/10 01:34:11;;;;;;;9.65;4.55;;;-2.30;99.90;;;;;;4893409;29;20044;-70
2022/12/10 01:36:42;;;;;;;8.52;5.07;;;-2.30;99.90;;;;;;4892003;29;20043;-70
2022/12/10 01:39:10;;;;;;;10.63;5.47;;;-2.30;99.90;;;;;;4893875;29;20068;-69
2022/12/10 01:41:42;;;;;;;11.82;6.07;;;-2.10;99.90;;;;;;4909251;29;20182;-69
2022/12/10 01:44:08;;;;;;;9.45;5.70;;;-2.30;99.90;;;;;;4876577;29;20086;-69
2022/12/10 01:46:36;;;;;;;7.63;4.05;;;-2.20;99.90;;;;;;4892921;29;20545;-70
2022/12/10 01:49:05;;;;;;;9.30;5.22;;;-2.30;99.90;;;;;;4891225;29;20052;-70
2022/12/10 01:51:34;;;;;;;9.95;5.53;;;-2.20;99.90;;;;;;4892131;29;20048;-70
2022/12/10 01:54:00;;;;;;;9.98;5.43;;;-2.40;99.90;;;;;;4893371;29;20476;-74
2022/12/10 01:56:26;;;;;;;12.20;6.07;;;-2.20;99.90;;;;;;4910485;29;20044;-74
2022/12/10 01:58:57;;;;;;;11.45;5.88;;;-2.20;99.90;;;;;;4893380;29;20122;-74
2022/12/10 02:01:50;;;;;;;11.25;6.18;;;-2.40;99.90;;;;;;4908509;29;20106;-73
2022/12/10 02:04:57;;;;;;;11.20;5.53;;;-2.30;99.90;;;;;;4881227;29;20339;-74
2022/12/10 02:07:30;;;;;;;9.48;5.38;;;-2.10;99.90;;;;;;4894893;29;20489;-73
2022/12/10 02:10:02;;;;;;;12.35;6.40;;;-2.20;99.90;;;;;;4893278;29;20056;-74
2022/12/10 02:12:34;;;;;;;23.13;12.68;;;-2.20;99.90;;;;;;4895272;29;20122;-74
2022/12/10 02:15:05;;;;;;;21.45;11.38;;;-2.10;99.90;;;;;;4897333;29;20039;-74
2022/12/10 02:17:41;;;;;;;21.55;10.38;;;-2.20;99.90;;;;;;4896979;29;20118;-73
2022/12/10 02:20:18;;;;;;;24.83;11.93;;;-2.00;99.90;;;;;;4894734;29;20040;-74
2022/12/10 02:22:55;;;;;;;25.80;12.55;;;-2.00;99.90;;;;;;4896826;29;20048;-73
2022/12/10 02:25:28;;;;;;;33.00;15.23;;;-2.00;99.90;;;;;;4898198;29;20056;-73
2022/12/10 02:28:11;;;;;;;25.77;13.15;;;-2.10;99.90;;;;;;4881766;29;20488;-74
2022/12/10 02:30:39;;;;;;;26.65;14.13;;;-2.10;99.90;;;;;;4897237;29;20055;-74
2022/12/10 02:33:07;;;;;;;31.48;14.75;;;-2.00;99.90;;;;;;4896734;29;20047;-74
2022/12/10 02:35:35;;;;;;;32.75;16.67;;;-1.80;99.90;;;;;;4881447;29;20051;-74
2022/12/10 02:38:16;;;;;;;31.77;14.40;;;-1.90;99.90;;;;;;4895830;29;20497;-74
2022/12/10 02:40:47;;;;;;;32.75;15.52;;;-1.80;99.90;;;;;;4897178;29;20108;-75
2022/12/10 02:43:14;;;;;;;27.15;13.43;;;-2.00;99.90;;;;;;4896383;29;20064;-73
2022/12/10 02:45:42;;;;;;;24.85;12.45;;;-1.90;99.90;;;;;;4914373;29;20047;-74
2022/12/10 02:48:08;;;;;;;21.92;11.02;;;-1.90;99.90;;;;;;4896119;29;20151;-73
2022/12/10 02:50:34;;;;;;;25.42;13.93;;;-1.90;99.90;;;;;;4866489;29;20562;-73
2022/12/10 02:53:00;;;;;;;27.13;13.45;;;-1.90;99.90;;;;;;4895868;29;20134;-73
2022/12/10 02:55:26;;;;;;;26.70;13.07;;;-2.00;99.90;;;;;;4881017;29;20056;-73
2022/12/10 02:58:19;;;;;;;31.88;15.68;;;-1.90;99.90;;;;;;4880281;29;20068;-73
2022/12/10 03:00:56;;;;;;;30.70;15.57;;;-2.00;99.90;;;;;;4880211;29;20119;-73
2022/12/10 03:03:32;;;;;;;29.55;14.68;;;-2.10;99.90;;;;;;4894489;29;20068;-70
2022/12/10 03:06:16;;;;;;;26.58;13.55;;;-2.00;99.90;;;;;;4912971;29;20056;-69
2022/12/10 03:08:50;;;;;;;29.77;14.35;;;-2.10;99.90;;;;;;4876918;29;20044;-69
2022/12/10 03:11:25;;;;;;;25.33;13.32;;;-2.00;99.90;;;;;;4894487;29;20136;-69
2022/12/10 03:14:06;;;;;;;26.05;12.85;;;-2.10;99.90;;;;;;4909741;29;20050;-69
2022/12/10 03:16:45;;;;;;;30.15;14.45;;;-2.20;99.90;;;;;;4880863;29;20099;-69
2022/12/10 03:19:16;;;;;;;27.25;13.45;;;-2.20;99.90;;;;;;4895200;29;20450;-69
2022/12/10 03:21:44;;;;;;;27.38;13.63;;;-2.00;99.90;;;;;;4894443;29;20367;-69
2022/12/10 03:24:11;;;;;;;21.35;10.77;;;-2.20;99.90;;;;;;4910815;29;20048;-69
2022/12/10 03:26:41;;;;;;;23.17;11.65;;;-2.20;99.90;;;;;;4895488;29;20092;-69
2022/12/10 03:29:10;;;;;;;23.90;11.43;;;-2.10;99.90;;;;;;4880990;29;20052;-69
2022/12/10 03:31:38;;;;;;;22.75;11.18;;;-2.00;99.90;;;;;;4895824;29;20138;-69
2022/12/10 03:34:07;;;;;;;20.13;10.98;;;-2.20;99.90;;;;;;4879187;29;20075;-69
2022/12/10 03:36:33;;;;;;;17.73;9.85;;;-2.20;99.90;;;;;;4879692;29;20048;-69
2022/12/10 03:38:59;;;;;;;23.60;12.25;;;-2.20;99.90;;;;;;4893620;29;20044;-69
2022/12/10 03:41:25;;;;;;;21.27;10.70;;;-2.20;99.90;;;;;;4888492;29;20048;-69
2022/12/10 03:43:56;;;;;;;18.85;10.30;;;-2.20;99.90;;;;;;4891805;29;20489;-69
2022/12/10 03:46:27;;;;;;;16.23;8.20;;;-2.30;99.90;;;;;;4879330;29;20730;-69
2022/12/10 03:48:54;;;;;;;18.80;9.20;;;-2.30;99.90;;;;;;4909436;29;20044;-69
2022/12/10 03:51:20;;;;;;;16.95;8.82;;;-2.20;99.90;;;;;;4895115;29;20052;-68
2022/12/10 03:53:48;;;;;;;19.33;9.85;;;-2.30;99.90;;;;;;4891883;29;20378;-73
2022/12/10 03:56:14;;;;;;;25.90;12.05;;;-2.50;99.90;;;;;;4895730;29;20505;-73
2022/12/10 03:58:40;;;;;;;25.85;12.88;;;-2.50;99.90;;;;;;4895029;29;20084;-75
2022/12/10 04:01:06;;;;;;;21.98;11.57;;;-2.60;99.90;;;;;;4895244;29;20054;-73
2022/12/10 04:03:39;;;;;;;25.17;12.20;;;-2.50;99.90;;;;;;4894717;29;20118;-73
2022/12/10 04:06:07;;;;;;;22.52;11.27;;;-2.60;99.90;;;;;;4916395;29;20044;-73
2022/12/10 04:08:33;;;;;;;18.30;9.57;;;-2.40;99.90;;;;;;4915210;29;20050;-74
2022/12/10 04:11:07;;;;;;;25.52;11.68;;;-2.50;99.90;;;;;;4897894;29;20047;-73
2022/12/10 04:16:28;;;;;;;26.80;12.65;;;-2.50;99.90;;;;;;4898553;29;20044;-73
2022/12/10 04:18:57;;;;;;;21.00;11.20;;;-2.60;99.90;;;;;;4898551;29;20063;-73
2022/12/10 04:26:55;;;;;;;13.15;6.60;;;-2.60;99.90;;;;;;4897193;29;20082;-70
2022/12/10 04:29:24;;;;;;;13.25;6.38;;;-2.70;99.90;;;;;;4899350;29;20040;-70
2022/12/10 04:31:50;;;;;;;11.80;5.93;;;-2.80;99.90;;;;;;4914520;29;20044;-70
2022/12/10 04:34:15;;;;;;;11.48;6.38;;;-2.70;99.90;;;;;;4916296;29;20095;-69
2022/12/10 04:36:41;;;;;;;11.05;5.75;;;-2.70;99.90;;;;;;4876314;29;20406;-70
2022/12/10 04:39:07;;;;;;;8.07;4.72;;;-2.80;99.90;;;;;;4881331;29;20041;-69
2022/12/10 04:41:33;;;;;;;10.77;5.75;;;-2.80;99.90;;;;;;4897955;29;20438;-68
2022/12/10 04:43:59;;;;;;;8.45;4.65;;;-2.90;99.90;;;;;;4897662;29;20540;-69
2022/12/10 04:46:24;;;;;;;7.85;4.20;;;-2.90;99.90;;;;;;4914295;29;20835;-68
2022/12/10 04:48:50;;;;;;;9.48;4.40;;;-2.90;99.90;;;;;;4880715;29;20127;-69
2022/12/10 04:51:16;;;;;;;9.05;4.72;;;-2.90;99.90;;;;;;4914097;29;20559;-70
2022/12/10 04:53:41;;;;;;;8.52;4.43;;;-2.70;99.90;;;;;;4897261;29;20387;-69
2022/12/10 04:56:07;;;;;;;7.80;3.97;;;-2.80;99.90;;;;;;4914741;29;20055;-69
2022/12/10 04:58:33;;;;;;;11.63;5.43;;;-2.70;99.90;;;;;;4897690;29;20060;-69
2022/12/10 05:01:07;;;;;;;16.52;7.88;;;-2.50;99.90;;;;;;4896226;29;20059;-69
2022/12/10 05:03:34;;;;;;;16.88;8.25;;;-2.50;99.90;;;;;;4897813;29;20048;-69
2022/12/10 05:06:08;;;;;;;29.80;14.80;;;-2.20;99.90;;;;;;4881519;29;20046;-69
2022/12/10 05:08:35;;;;;;;34.40;15.90;;;-2.20;99.90;;;;;;4897982;29;20044;-69
2022/12/10 05:11:05;;;;;;;30.13;15.10;;;-2.20;99.90;;;;;;4889093;29;20139;-74
2022/12/10 05:13:31;;;;;;;31.83;15.95;;;-1.90;99.90;;;;;;4896273;29;20075;-74
2022/12/10 05:15:57;;;;;;;43.45;20.17;;;-2.00;99.90;;;;;;4898168;29;20174;-73
2022/12/10 05:18:23;;;;;;;52.50;23.55;;;-2.00;99.90;;;;;;4883128;29;20104;-73
2022/12/10 05:20:49;;;;;;;54.10;24.10;;;-1.80;99.90;;;;;;4895567;29;20044;-73
2022/12/10 05:23:28;;;;;;;54.88;24.75;;;-1.70;99.90;;;;;;4897939;29;20051;-73
2022/12/10 05:26:08;;;;;;;51.25;23.25;;;-1.80;99.90;;;;;;4884789;29;20044;-73
2022/12/10 05:28:37;;;;;;;55.22;24.33;;;-1.70;99.90;;;;;;4898483;29;20054;-74
2022/12/10 05:31:04;;;;;;;51.92;23.80;;;-1.50;99.90;;;;;;4895566;29;20048;-73
2022/12/10 05:33:30;;;;;;;44.75;21.15;;;-1.60;99.90;;;;;;4898300;29;20490;-73
2022/12/10 05:35:57;;;;;;;;;;;-1.60;99.90;;;;;;4883506;29;20051;-73
2022/12/10 05:38:23;;;;;;;53.77;22.67;;;-1.70;99.90;;;;;;4898293;29;19929;-74
2022/12/10 05:40:49;;;;;;;54.67;23.58;;;-1.50;99.90;;;;;;4895709;29;20040;-73
2022/12/10 05:43:15;;;;;;;46.75;21.35;;;-1.50;99.90;;;;;;4893303;29;20132;-73
2022/12/10 05:45:41;;;;;;;49.75;20.08;;;-1.50;99.90;;;;;;4914388;29;20261;-73
2022/12/10 05:48:08;;;;;;;55.92;23.90;;;-1.50;99.90;;;;;;4880932;29;20397;-73
2022/12/10 05:50:34;;;;;;;54.75;23.70;;;-1.60;99.90;;;;;;4912763;29;20083;-74
2022/12/10 05:52:59;;;;;;;56.83;24.00;;;-1.60;99.90;;;;;;4914935;29;20192;-73
2022/12/10 05:55:26;;;;;;;64.22;25.90;;;-1.60;99.90;;;;;;4913818;29;20044;-74
2022/12/10 05:57:52;;;;;;;52.17;23.42;;;-1.50;99.90;;;;;;4881893;29;20115;-73
2022/12/10 06:00:18;;;;;;;61.25;26.85;;;-1.50;99.90;;;;;;4860828;29;20060;-74
2022/12/10 06:02:44;;;;;;;54.88;25.98;;;-1.50;99.90;;;;;;4879284;29;20177;-73
2022/12/10 06:05:09;;;;;;;57.40;26.27;;;-1.30;99.90;;;;;;4893436;29;20493;-74
2022/12/10 06:07:35;;;;;;;49.73;23.23;;;-1.60;99.90;;;;;;4914510;29;20055;-74
2022/12/10 06:10:01;;;;;;;40.45;19.15;;;-1.60;99.90;;;;;;4895869;29;20308;-73
2022/12/10 06:12:26;;;;;;;44.25;20.17;;;-1.40;99.90;;;;;;4896861;29;20048;-72
2022/12/10 06:14:52;;;;;;;44.70;19.77;;;-1.30;99.90;;;;;;4895659;29;20048;-73
2022/12/10 06:17:18;;;;;;;38.28;17.45;;;-1.60;99.90;;;;;;4913871;29;20051;-73
2022/12/10 06:19:45;;;;;;;49.67;22.27;;;-1.50;99.90;;;;;;4897430;29;20087;-74
2022/12/10 06:22:10;;;;;;;48.55;22.75;;;-1.60;99.90;;;;;;4896106;29;20485;-74
2022/12/10 06:24:36;;;;;;;47.27;20.97;;;-1.50;99.90;;;;;;4913790;29;20059;-73
2022/12/10 06:27:02;;;;;;;49.27;23.03;;;-1.30;99.90;;;;;;4896575;29;20881;-73
2022/12/10 06:29:28;;;;;;;45.90;22.07;;;-1.70;99.90;;;;;;4895956;29;20411;-73
2022/12/10 06:31:54;;;;;;;48.08;22.27;;;-1.40;99.90;;;;;;4911792;29;20372;-73
2022/12/10 06:34:20;;;;;;;43.00;19.77;;;-1.50;99.90;;;;;;4896018;29;20087;-74
2022/12/10 06:36:45;;;;;;;30.20;14.30;;;-1.50;99.90;;;;;;4897481;29;20319;-73
2022/12/10 06:39:11;;;;;;;38.55;17.42;;;-1.30;99.90;;;;;;4897446;29;20080;-73
2022/12/10 06:41:37;;;;;;;26.35;11.98;;;-1.50;99.90;;;;;;4879995;29;20041;-73
2022/12/10 06:44:06;;;;;;;22.30;11.45;;;-1.40;99.90;;;;;;4881675;29;20047;-73
2022/12/10 06:46:32;;;;;;;28.80;13.93;;;-1.60;99.90;;;;;;4914331;29;20087;-74
2022/12/10 06:48:57;;;;;;;38.77;17.40;;;-1.60;99.90;;;;;;4895865;29;20083;-73
2022/12/10 06:51:23;;;;;;;43.38;19.95;;;-1.40;99.90;;;;;;4862601;29;20363;-73
2022/12/10 06:53:49;;;;;;;39.13;18.15;;;-1.60;99.90;;;;;;4911514;29;20051;-72
2022/12/10 06:56:17;;;;;;;46.00;21.30;;;-1.30;99.90;;;;;;4897058;29;20071;-73
2022/12/10 06:58:43;;;;;;;39.17;19.13;;;-1.30;99.90;;;;;;4895546;29;20080;-73
2022/12/10 07:01:13;;;;;;;42.28;20.10;;;-1.40;99.90;;;;;;4899582;29;20489;-72
2022/12/10 07:03:39;;;;;;;44.65;21.77;;;-1.30;99.90;;;;;;4899903;29;20103;-74
2022/12/10 07:06:10;;;;;;;39.08;18.17;;;-1.60;99.90;;;;;;4896229;29;20051;-68
2022/12/10 07:08:36;;;;;;;41.33;19.25;;;-1.30;99.90;;;;;;4896619;29;20083;-68
2022/12/10 07:11:08;;;;;;;38.10;18.65;;;-1.50;99.90;;;;;;4913134;29;20480;-68
2022/12/10 07:13:34;;;;;;;34.95;17.58;;;-1.40;99.90;;;;;;4896882;29;20052;-68
2022/12/10 07:15:59;;;;;;;38.35;18.52;;;-1.70;99.90;;;;;;4882352;29;20039;-68
2022/12/10 07:18:25;;;;;;;37.28;18.10;;;-1.70;99.90;;;;;;4898055;29;20047;-69
2022/12/10 07:20:51;;;;;;;37.60;17.65;;;-1.70;99.90;;;;;;4895152;29;20056;-70
2022/12/10 07:23:17;;;;;;;37.70;18.08;;;-1.30;99.90;;;;;;4895143;29;20100;-69
2022/12/10 07:25:42;;;;;;;41.53;19.75;;;-1.50;99.90;;;;;;4912176;29;20032;-69
2022/12/10 07:28:08;;;;;;;43.75;20.67;;;-1.40;99.90;;;;;;4898937;29;20107;-69
2022/12/10 07:30:34;;;;;;;39.55;18.13;;;-1.40;99.90;;;;;;4895807;29;20043;-69
2022/12/10 07:32:59;;;;;;;36.25;17.25;;;-1.50;99.90;;;;;;4883325;29;20466;-69
2022/12/10 07:35:25;;;;;;;32.97;16.67;;;-1.90;99.90;;;;;;4898315;29;20048;-69
2022/12/10 07:37:51;;;;;;;31.00;15.25;;;-1.60;99.90;;;;;;4895483;29;20095;-69
2022/12/10 07:40:17;;;;;;;29.45;14.43;;;-1.50;99.90;;;;;;4874348;29;20075;-69
2022/12/10 07:42:42;;;;;;;25.85;12.52;;;-1.90;99.90;;;;;;4894216;29;20048;-69
2022/12/10 07:45:08;;;;;;;38.70;17.52;;;-1.50;99.90;;;;;;4900176;29;20044;-70
2022/12/10 07:47:38;;;;;;;33.20;16.05;;;-1.90;99.90;;;;;;4882543;29;22132;-69
2022/12/10 07:50:05;;;;;;;40.30;18.80;;;-1.80;99.90;;;;;;4866286;29;20492;-69
2022/12/10 07:52:31;;;;;;;37.55;18.10;;;-1.60;99.90;;;;;;4898489;29;20127;-70
2022/12/10 07:54:57;;;;;;;36.70;17.60;;;-1.60;99.90;;;;;;4899235;29;20147;-71
2022/12/10 07:57:22;;;;;;;31.20;14.77;;;-1.60;99.90;;;;;;4884025;29;20146;-72
2022/12/10 07:59:48;;;;;;;34.60;16.73;;;-1.90;99.90;;;;;;4899247;29;20060;-73
2022/12/10 08:02:14;;;;;;;30.65;15.43;;;-1.70;99.90;;;;;;4867338;29;20048;-72
2022/12/10 08:04:39;;;;;;;38.03;18.88;;;-1.80;99.90;;;;;;4917108;29;20048;-72
2022/12/10 08:07:05;;;;;;;33.60;15.65;;;-1.70;99.90;;;;;;4899001;29;20044;-69
2022/12/10 08:09:31;;;;;;;30.63;14.55;;;-1.80;99.90;;;;;;4896393;29;20044;-71
2022/12/10 08:11:57;;;;;;;29.27;13.90;;;-1.70;99.90;;;;;;4894472;29;20060;-72
2022/12/10 08:14:22;;;;;;;37.47;16.63;;;-1.90;99.90;;;;;;4877033;29;20055;-68
2022/12/10 08:16:48;;;;;;;43.13;20.27;;;-1.80;99.90;;;;;;4912764;29;20304;-68
2022/12/10 08:19:14;;;;;;;44.83;18.38;;;-1.90;99.90;;;;;;4898362;29;20312;-70
2022/12/10 08:21:39;;;;;;;40.13;17.92;;;-2.00;99.90;;;;;;4899560;29;20074;-74
2022/12/10 08:24:05;;;;;;;44.17;19.33;;;-1.60;99.90;;;;;;4882859;29;20056;-70
2022/12/10 08:26:32;;;;;;;49.88;21.85;;;-1.80;99.90;;;;;;4866170;29;20410;-71
2022/12/10 08:28:59;;;;;;;43.90;20.40;;;-1.70;99.90;;;;;;4879378;29;20482;-67
2022/12/10 08:31:26;;;;;;;42.90;19.45;;;-1.60;99.90;;;;;;4897102;29;20127;-72
2022/12/10 08:33:52;;;;;;;37.08;16.98;;;-2.10;99.90;;;;;;4895347;29;20477;-69
2022/12/10 08:36:19;;;;;;;37.13;17.92;;;-1.80;99.90;;;;;;4898751;29;20090;-69
2022/12/10 08:38:45;;;;;;;48.95;21.88;;;-2.00;99.90;;;;;;4898850;29;20063;-69
2022/12/10 08:41:13;;;;;;;43.65;20.10;;;-1.70;99.90;;;;;;4915090;29;20055;-68
2022/12/10 08:43:40;;;;;;;39.70;18.77;;;-2.00;99.90;;;;;;4898074;29;20135;-68
2022/12/10 08:46:06;;;;;;;48.65;22.48;;;-1.70;99.90;;;;;;4898695;29;20055;-68
2022/12/10 08:48:32;;;;;;;42.22;19.38;;;-2.20;99.90;;;;;;4898355;29;20393;-68
2022/12/10 08:50:58;;;;;;;37.22;18.20;;;-1.70;99.90;;;;;;4898021;29;20063;-69
2022/12/10 08:53:24;;;;;;;35.85;16.48;;;-2.10;99.90;;;;;;4898314;29;20150;-69
2022/12/10 08:55:51;;;;;;;33.40;15.48;;;-2.00;99.90;;;;;;4915061;29;20486;-69
2022/12/10 08:58:17;;;;;;;33.60;15.93;;;-1.70;99.90;;;;;;4898425;29;20059;-69
2022/12/10 09:00:43;;;;;;;25.77;12.25;;;-2.00;99.90;;;;;;4898795;29;20386;-70
2022/12/10 09:03:09;;;;;;;33.05;16.90;;;-2.10;99.90;;;;;;4898312;29;20044;-69
2022/12/10 09:05:35;;;;;;;38.95;18.75;;;-1.80;99.90;;;;;;4898027;29;20103;-69
2022/12/10 09:08:01;;;;;;;41.13;18.27;;;-2.10;99.90;;;;;;4882588;29;20044;-69
2022/12/10 09:10:27;;;;;;;37.83;18.70;;;-2.00;99.90;;;;;;4898086;29;20044;-69
2022/12/10 09:12:53;;;;;;;34.65;17.25;;;-2.20;99.90;;;;;;4899149;29;20179;-69
2022/12/10 09:15:19;;;;;;;35.83;17.23;;;-2.20;99.90;;;;;;4897797;29;20079;-69
2022/12/10 09:17:45;;;;;;;35.90;17.75;;;-1.80;99.90;;;;;;4897989;29;20102;-69
2022/12/10 09:20:10;;;;;;;39.88;19.27;;;-1.90;99.90;;;;;;4897950;29;20459;-69
2022/12/10 09:22:36;;;;;;;33.17;16.77;;;-2.30;99.90;;;;;;4897319;29;20044;-69
2022/12/10 09:25:09;;;;;;;35.50;18.13;;;-2.30;99.90;;;;;;4897442;29;20056;-69
2022/12/10 09:27:35;;;;;;;38.58;18.55;;;-2.10;99.90;;;;;;4898442;29;20565;-69
2022/12/10 09:30:01;;;;;;;35.28;17.23;;;-2.20;99.90;;;;;;4897745;29;20040;-69
2022/12/10 09:32:27;;;;;;;36.65;18.05;;;-1.90;99.90;;;;;;4881960;29;20404;-69
2022/12/10 09:34:53;;;;;;;39.50;18.85;;;-1.80;99.90;;;;;;4898255;29;20050;-69
2022/12/10 09:37:19;;;;;;;36.55;17.85;;;-1.90;99.90;;;;;;4898159;29;20056;-68
2022/12/10 09:39:45;;;;;;;27.73;13.63;;;-1.80;99.90;;;;;;4897653;29;20143;-68
2022/12/10 09:42:26;;;;;;;38.95;17.75;;;-2.00;99.90;;;;;;4897544;29;20040;-69
2022/12/10 09:45:16;;;;;;;40.72;18.58;;;-2.10;99.90;;;;;;4897570;29;20055;-69
2022/12/10 09:48:16;;;;;;;34.55;16.23;;;-2.10;99.90;;;;;;4897634;29;20080;-69
2022/12/10 09:50:57;;;;;;;38.13;17.30;;;-1.60;99.90;;;;;;4881869;29;20056;-69
2022/12/10 09:53:26;;;;;;;39.95;17.90;;;-1.70;99.90;;;;;;4898046;29;20440;-69
2022/12/10 09:55:52;;;;;;;35.47;17.90;;;-1.60;99.90;;;;;;4897362;29;20056;-68
2022/12/10 09:58:24;;;;;;;39.70;18.77;;;-1.90;99.90;;;;;;4897368;29;20067;-69
2022/12/10 10:00:57;;;;;;;40.13;17.95;;;-1.90;99.90;;;;;;4896922;29;20414;-69
2022/12/10 10:03:23;;;;;;;39.95;17.23;;;-1.90;99.90;;;;;;4897889;29;20051;-71
2022/12/10 10:05:52;;;;;;;35.05;16.40;;;-1.90;99.90;;;;;;4897879;29;20051;-71
2022/12/10 10:08:28;;;;;;;31.83;14.57;;;-1.90;99.90;;;;;;4897553;29;20122;-69
2022/12/10 10:10:54;;;;;;;33.15;15.07;;;-1.80;99.90;;;;;;4915048;29;20048;-69
2022/12/10 10:13:35;;;;;;;30.90;14.93;;;-1.50;99.90;;;;;;4897488;29;20052;-69
2022/12/10 10:16:23;;;;;;;42.97;19.17;;;-1.80;99.90;;;;;;4897196;29;20055;-69
2022/12/10 10:18:59;;;;;;;32.90;15.43;;;-1.30;99.90;;;;;;4896826;29;20151;-69
2022/12/10 10:21:33;;;;;;;40.38;18.88;;;-1.20;99.90;;;;;;4881404;29;20048;-69
2022/12/10 10:23:59;;;;;;;40.95;19.23;;;-1.50;99.90;;;;;;4897064;29;20509;-69
2022/12/10 10:26:26;;;;;;;34.03;16.13;;;-1.70;99.90;;;;;;4897071;29;20044;-70
2022/12/10 10:29:05;;;;;;;34.47;15.93;;;-1.20;99.90;;;;;;4896785;29;20130;-69
2022/12/10 10:31:34;;;;;;;30.88;14.15;;;-1.70;99.90;;;;;;4913885;29;20139;-69
2022/12/10 10:34:06;;;;;;;30.85;14.85;;;-1.50;99.90;;;;;;4898869;29;20493;-69
2022/12/10 10:36:37;;;;;;;25.67;12.30;;;-1.20;99.90;;;;;;4900598;29;20120;-69
2022/12/10 10:39:18;;;;;;;27.05;12.75;;;-1.10;99.90;;;;;;4900794;29;20052;-69
2022/12/10 10:41:49;;;;;;;23.40;12.00;;;-1.30;99.90;;;;;;4900946;29;20430;-69
2022/12/10 10:44:18;;;;;;;27.98;12.82;;;-1.20;99.90;;;;;;4900962;29;20147;-68
2022/12/10 10:46:46;;;;;;;28.42;13.73;;;-0.90;99.90;;;;;;4901065;29;20086;-68
2022/12/10 10:49:14;;;;;;;29.63;15.10;;;-1.20;99.90;;;;;;4900856;29;20541;-69
2022/12/10 10:51:45;;;;;;;33.38;16.20;;;-1.20;99.90;;;;;;4900287;29;20056;-69
2022/12/10 10:54:11;;;;;;;28.52;15.30;;;-1.40;99.90;;;;;;4917236;29;20470;-69
2022/12/10 10:56:42;;;;;;;27.92;13.55;;;-1.00;99.90;;;;;;4884621;29;20083;-69
2022/12/10 10:59:16;;;;;;;28.05;13.73;;;-1.00;99.90;;;;;;4917074;29;20564;-69
2022/12/10 11:01:49;;;;;;;26.38;13.43;;;-1.10;99.90;;;;;;4900138;29;20480;-69
2022/12/10 11:04:18;;;;;;;25.45;12.68;;;-1.20;99.90;;;;;;4900173;29;20039;-69
2022/12/10 11:06:44;;;;;;;26.63;12.90;;;-0.90;99.90;;;;;;4900706;29;20044;-69
2022/12/10 11:09:25;;;;;;;29.45;14.60;;;-0.80;99.90;;;;;;4900428;29;20067;-69
2022/12/10 11:12:30;;;;;;;33.88;16.58;;;-1.30;99.90;;;;;;4884442;29;20557;-68
2022/12/10 11:14:56;;;;;;;39.17;18.75;;;-1.30;99.90;;;;;;4883684;29;20060;-69
2022/12/10 11:17:24;;;;;;;32.65;17.02;;;-0.90;99.90;;;;;;4900154;29;20103;-69
2022/12/10 11:20:00;;;;;;;34.35;16.65;;;-1.30;99.90;;;;;;4899703;29;20064;-69
2022/12/10 11:22:32;;;;;;;32.42;16.02;;;-1.10;99.90;;;;;;4900067;29;20040;-69
2022/12/10 11:24:59;;;;;;;25.85;14.00;;;-0.80;99.90;;;;;;4899772;29;20136;-69
2022/12/10 11:27:45;;;;;;;27.23;13.52;;;-1.30;99.90;;;;;;4899757;29;20516;-69
2022/12/10 11:30:17;;;;;;;30.30;15.75;;;-1.30;99.90;;;;;;4884155;29;20054;-69
2022/12/10 11:33:06;;;;;;;39.92;19.73;;;-1.10;99.90;;;;;;4899820;29;20079;-68
2022/12/10 11:35:40;;;;;;;37.47;17.25;;;-0.80;99.90;;;;;;4899744;29;20083;-68
2022/12/10 11:38:27;;;;;;;33.05;16.35;;;-1.20;99.90;;;;;;4899675;29;20063;-69
2022/12/10 11:41:27;;;;;;;33.60;16.33;;;-0.90;99.90;;;;;;4899359;29;20048;-69
2022/12/10 11:44:08;;;;;;;40.25;17.92;;;-1.20;99.90;;;;;;4899449;29;20292;-68
2022/12/10 11:46:56;;;;;;;35.95;16.13;;;-1.20;99.90;;;;;;4899016;29;20119;-69
2022/12/10 11:49:31;;;;;;;36.03;16.95;;;-1.00;99.90;;;;;;4899502;29;20079;-69
2022/12/10 11:52:15;;;;;;;31.05;14.75;;;-0.60;99.90;;;;;;4899750;29;20052;-69
2022/12/10 11:54:55;;;;;;;33.45;15.32;;;-1.00;99.90;;;;;;4883942;29;20044;-68
2022/12/10 11:57:27;;;;;;;30.30;14.27;;;-0.80;99.90;;;;;;4899463;29;20408;-69
2022/12/10 12:00:21;;;;;;;31.17;15.05;;;-0.60;99.90;;;;;;4883594;29;20115;-69
2022/12/10 12:03:05;;;;;;;34.92;15.95;;;-1.00;99.90;;;;;;4898742;29;20064;-69
2022/12/10 12:06:00;;;;;;;39.42;16.92;;;-0.50;99.90;;;;;;4899622;29;20083;-68
2022/12/10 12:08:43;;;;;;;35.38;16.05;;;-0.90;99.90;;;;;;4899172;29;20417;-68
2022/12/10 12:11:23;;;;;;;40.83;17.02;;;-0.70;99.90;;;;;;4883319;29;20056;-69
2022/12/10 12:13:55;;;;;;;31.98;14.60;;;-0.40;99.90;;;;;;4895677;29;20048;-69
2022/12/10 12:16:37;;;;;;;31.33;13.93;;;-0.40;99.90;;;;;;4881171;29;20124;-69
2022/12/10 12:19:16;;;;;;;28.00;13.88;;;-0.60;99.90;;;;;;4897152;29;20052;-68
2022/12/10 12:21:43;;;;;;;37.78;18.08;;;-0.30;99.90;;;;;;4880243;29;20051;-71
2022/12/10 12:24:21;;;;;;;36.35;16.25;;;-0.70;99.90;;;;;;4897333;29;20068;-72
2022/12/10 12:26:54;;;;;;;33.10;15.82;;;-0.30;99.90;;;;;;4897826;29;20052;-72
2022/12/10 12:29:41;;;;;;;43.88;17.85;;;-0.70;99.90;;;;;;4880143;29;20494;-71
2022/12/10 12:32:25;;;;;;;36.08;15.98;;;-0.40;99.90;;;;;;4880242;29;20062;-71
2022/12/10 12:34:56;;;;;;;28.08;13.70;;;-0.70;99.90;;;;;;4864551;29;20063;-71
2022/12/10 12:37:29;;;;;;;38.38;15.93;;;-0.60;99.90;;;;;;4879927;29;20060;-71
2022/12/10 12:40:20;;;;;;;39.72;17.67;;;-0.70;99.90;;;;;;4897081;29;20076;-71
2022/12/10 12:43:02;;;;;;;39.90;18.17;;;-0.70;99.90;;;;;;4879805;29;20053;-71
2022/12/10 12:45:41;;;;;;;32.38;15.25;;;-0.70;99.90;;;;;;4879885;29;20482;-71
2022/12/10 12:48:33;;;;;;;39.85;16.10;;;-0.60;99.90;;;;;;4879817;29;20059;-70
2022/12/10 12:51:09;;;;;;;40.13;17.17;;;-0.30;99.90;;;;;;4897239;29;20119;-72
2022/12/10 12:53:35;;;;;;;38.67;17.13;;;-0.20;99.90;;;;;;4897484;29;20047;-72